Kendricks Ferry, Louisiana
Current Conditions -  °F | °C
As of 11:55 AM on Tuesday 21 Oct 2014 (Local Time) from KHEZ Reporting Station
Clear Clear  
Wind Chill: 73°   Ceiling: Unl
Heat Index: 73°   Visibility: 10mi
Dew Point: 54°   Wind: 6mph
Humidity: 50%   Direction: 20°NNE
Pressure: 30.11"   Gusts: NA
Location:  32.0246°N, 91.5666°W
Report Text: KHEZ 211655Z AUTO 02005KT 10SM CLR 23/12 A3011 RMK AO1
Loading
Personal Weather Stations






























Interactive Weather Map
Tropical Storm Tracking
New forecast layout! Learn more

10-Day Weather Forecast

Advertisements
Track Severe Weather on mobile